createdAt,value
2022-12-22T00:01:23.130Z,100454.41
2022-12-22T00:04:29.735Z,100449.28
2022-12-22T00:07:34.291Z,100447.38
2022-12-22T00:10:38.914Z,100447.50
2022-12-22T00:13:43.377Z,100442.75
2022-12-22T00:16:57.109Z,100449.72
2022-12-22T00:20:01.721Z,100451.03
2022-12-22T00:23:05.923Z,100455.94
2022-12-22T00:26:09.734Z,100448.06
2022-12-22T00:29:14.371Z,100443.66
2022-12-22T00:32:19.815Z,100445.28
2022-12-22T00:35:24.559Z,100442.47
2022-12-22T00:38:40.233Z,100444.44
2022-12-22T00:41:44.026Z,100450.03
2022-12-22T00:44:47.952Z,100451.69
2022-12-22T00:47:52.480Z,100450.06
2022-12-22T00:50:57.216Z,100458.56
2022-12-22T00:54:01.703Z,100456.44
2022-12-22T00:57:06.484Z,100452.47
2022-12-22T01:00:13.664Z,100448.69
2022-12-22T01:03:18.149Z,100459.09
2022-12-22T01:06:22.760Z,100449.56
2022-12-22T01:09:29.475Z,100453.34
2022-12-22T01:12:45.645Z,100449.50
2022-12-22T01:15:50.345Z,100442.13
2022-12-22T01:18:54.807Z,100435.88
2022-12-22T01:21:59.411Z,100439.03
2022-12-22T01:25:04.136Z,100431.63
2022-12-22T01:28:07.881Z,100440.16
2022-12-22T01:31:12.249Z,100436.13
2022-12-22T01:34:19.406Z,100428.72
2022-12-22T01:37:23.855Z,100427.28
2022-12-22T01:40:39.009Z,100423.06
2022-12-22T01:43:46.718Z,100420.28
2022-12-22T01:47:00.264Z,100424.34
2022-12-22T01:50:05.167Z,100426.56
2022-12-22T01:53:18.023Z,100418.66
2022-12-22T01:56:25.135Z,100431.19
2022-12-22T01:59:29.436Z,100422.31
2022-12-22T02:02:35.713Z,100416.97
2022-12-22T02:05:40.249Z,100408.97
2022-12-22T02:08:51.948Z,100405.47
2022-12-22T02:11:52.211Z,100403.63
2022-12-22T02:15:26.183Z,100407.19
2022-12-22T02:18:42.348Z,100393.06
2022-12-22T02:21:55.265Z,100400.94
2022-12-22T02:25:10.570Z,100405.44
2022-12-22T02:28:15.438Z,100396.41
2022-12-22T02:31:19.825Z,100403.84
2022-12-22T02:34:33.142Z,100406.56
2022-12-22T02:38:18.252Z,100401.78
2022-12-22T02:41:50.217Z,100401.91
2022-12-22T02:45:20.785Z,100398.31
2022-12-22T02:48:35.815Z,100402.94
2022-12-22T02:51:45.896Z,100381.66
2022-12-22T02:54:51.698Z,100393.59
2022-12-22T02:57:55.807Z,100391.75
2022-12-22T03:00:59.556Z,100397.53
2022-12-22T03:04:03.773Z,100380.56
2022-12-22T03:07:07.823Z,100387.31
2022-12-22T03:10:11.979Z,100396.00
2022-12-22T03:13:19.528Z,100396.34
2022-12-22T03:16:24.195Z,100389.22
2022-12-22T03:19:28.682Z,100384.16
2022-12-22T03:22:32.971Z,100376.94
2022-12-22T03:25:37.039Z,100375.78
2022-12-22T03:28:26.612Z,100372.84
2022-12-22T03:31:12.473Z,100383.59
2022-12-22T03:33:58.243Z,100378.53
2022-12-22T03:36:43.567Z,100366.72
2022-12-22T03:39:29.084Z,100371.84
2022-12-22T03:42:32.802Z,100366.50
2022-12-22T03:45:36.723Z,100363.56
2022-12-22T03:48:22.148Z,100361.63
2022-12-22T03:51:08.107Z,100358.03
2022-12-22T03:53:53.467Z,100349.72
2022-12-22T03:56:39.798Z,100353.56
2022-12-22T03:59:25.099Z,100352.97
2022-12-22T04:02:10.740Z,100355.03
2022-12-22T04:04:56.638Z,100344.97
2022-12-22T04:07:42.270Z,100343.81
2022-12-22T04:10:46.171Z,100346.56
2022-12-22T04:13:31.753Z,100349.50
2022-12-22T04:16:17.056Z,100348.06
2022-12-22T04:19:03.079Z,100338.03
2022-12-22T04:21:48.347Z,100347.44
2022-12-22T04:24:33.824Z,100342.16
2022-12-22T04:27:19.301Z,100344.50
2022-12-22T04:30:10.440Z,100340.50
2022-12-22T04:32:55.910Z,100342.69
2022-12-22T04:35:41.340Z,100337.19
2022-12-22T04:38:26.669Z,100336.84
2022-12-22T04:41:12.625Z,100338.44
2022-12-22T04:43:58.107Z,100334.81
2022-12-22T04:46:43.949Z,100330.63
2022-12-22T04:49:29.407Z,100343.13
2022-12-22T04:52:14.805Z,100328.00
2022-12-22T04:55:00.417Z,100323.59
2022-12-22T04:57:45.833Z,100321.00
2022-12-22T05:00:31.334Z,100320.16
2022-12-22T05:03:16.849Z,100325.94
2022-12-22T05:06:02.625Z,100322.69
2022-12-22T05:08:48.089Z,100321.66
2022-12-22T05:11:33.582Z,100327.00
2022-12-22T05:14:18.962Z,100323.53
2022-12-22T05:17:04.544Z,100323.44
2022-12-22T05:19:50.423Z,100329.09
2022-12-22T05:22:35.963Z,100330.09
2022-12-22T05:25:22.068Z,100320.31
2022-12-22T05:28:07.527Z,100330.47
2022-12-22T05:30:53.662Z,100327.81
2022-12-22T05:33:39.447Z,100332.38
2022-12-22T05:36:25.083Z,100322.06
2022-12-22T05:39:10.690Z,100309.47
2022-12-22T05:41:56.422Z,100318.72
2022-12-22T05:44:41.829Z,100304.88
2022-12-22T05:47:27.092Z,100310.63
2022-12-22T05:50:17.698Z,100304.81
2022-12-22T05:53:03.732Z,100294.16
2022-12-22T05:55:49.301Z,100298.31
2022-12-22T05:58:35.361Z,100289.44
2022-12-22T06:01:20.808Z,100291.44
2022-12-22T06:04:06.254Z,100297.69
2022-12-22T06:06:55.048Z,100297.06
2022-12-22T06:09:40.768Z,100300.38
2022-12-22T06:12:26.302Z,100306.00
2022-12-22T06:15:13.352Z,100298.78
2022-12-22T06:17:59.576Z,100307.16
2022-12-22T06:20:51.813Z,100314.88
2022-12-22T06:23:37.664Z,100304.25
2022-12-22T06:26:23.714Z,100304.34
2022-12-22T06:29:09.574Z,100303.13
2022-12-22T06:31:55.621Z,100309.31
2022-12-22T06:34:41.477Z,100311.31
2022-12-22T06:37:27.267Z,100314.66
2022-12-22T06:40:13.994Z,100308.31
2022-12-22T06:43:10.086Z,100311.00
2022-12-22T06:45:56.135Z,100306.03
2022-12-22T06:48:42.039Z,100309.03
2022-12-22T06:51:27.380Z,100303.88
2022-12-22T06:54:12.868Z,100298.50
2022-12-22T06:56:58.321Z,100290.94
2022-12-22T06:59:44.234Z,100290.50
2022-12-22T07:02:31.575Z,100295.22
2022-12-22T07:05:17.288Z,100300.50
2022-12-22T07:08:08.020Z,100294.69
2022-12-22T07:11:00.505Z,100306.84
2022-12-22T07:13:46.761Z,100307.44
2022-12-22T07:16:32.243Z,100302.00
2022-12-22T07:19:18.032Z,100291.38
2022-12-22T07:22:03.651Z,100293.25
2022-12-22T07:24:50.325Z,100299.25
2022-12-22T07:27:36.172Z,100300.38
2022-12-22T07:30:21.794Z,100298.88
2022-12-22T07:33:07.535Z,100288.56
2022-12-22T07:36:15.473Z,100289.19
2022-12-22T07:39:00.887Z,100292.47
2022-12-22T07:42:05.108Z,100283.75
2022-12-22T07:44:50.750Z,100283.56
2022-12-22T07:47:36.186Z,100282.81
2022-12-22T07:50:28.209Z,100279.91
2022-12-22T07:53:13.689Z,100273.41
2022-12-22T07:56:06.061Z,100273.59
2022-12-22T07:58:51.524Z,100263.16
2022-12-22T08:01:37.618Z,100256.31
2022-12-22T08:04:23.620Z,100249.28
2022-12-22T08:07:09.385Z,100250.09
2022-12-22T08:09:54.742Z,100240.09
2022-12-22T08:12:40.425Z,100234.72
2022-12-22T08:15:26.308Z,100226.69
2022-12-22T08:18:12.243Z,100225.00
2022-12-22T08:20:57.708Z,100215.69
2022-12-22T08:23:43.273Z,100212.25
2022-12-22T08:26:41.761Z,100205.94
2022-12-22T08:29:46.265Z,100211.03
2022-12-22T08:32:31.706Z,100202.13
2022-12-22T08:35:18.416Z,100202.16
2022-12-22T08:38:05.675Z,100202.13
2022-12-22T08:40:51.334Z,100202.31
2022-12-22T08:43:36.799Z,100197.13
2022-12-22T08:46:22.318Z,100200.22
2022-12-22T08:49:07.910Z,100203.56
2022-12-22T08:51:54.569Z,100197.59
2022-12-22T08:54:40.529Z,100197.09
2022-12-22T08:57:25.980Z,100193.97
2022-12-22T09:00:13.660Z,100186.56
2022-12-22T09:02:59.060Z,100177.50
2022-12-22T09:05:44.920Z,100171.19
2022-12-22T09:08:30.842Z,100159.88
2022-12-22T09:11:17.056Z,100159.88
2022-12-22T09:14:04.334Z,100153.00
2022-12-22T09:16:50.790Z,100148.13
2022-12-22T09:19:36.417Z,100145.56
2022-12-22T09:22:28.111Z,100143.69
2022-12-22T09:25:14.726Z,100142.13
2022-12-22T09:28:00.386Z,100142.97
2022-12-22T09:30:53.369Z,100141.34
2022-12-22T09:33:39.178Z,100138.16
2022-12-22T09:36:29.627Z,100128.16
2022-12-22T09:39:15.991Z,100124.13
2022-12-22T09:42:01.609Z,100121.47
2022-12-22T09:44:50.657Z,100108.91
2022-12-22T09:47:39.599Z,100111.84
2022-12-22T09:50:26.940Z,100110.94
2022-12-22T09:53:23.618Z,100096.63
2022-12-22T09:56:15.223Z,100090.53
2022-12-22T09:59:00.958Z,100081.16
2022-12-22T10:02:23.216Z,100084.81
2022-12-22T10:05:18.009Z,100083.34
2022-12-22T10:08:29.035Z,100076.59
2022-12-22T10:11:19.029Z,100076.84
2022-12-22T10:14:04.321Z,100082.13
2022-12-22T10:16:50.044Z,100071.25
2022-12-22T10:19:35.834Z,100074.34
2022-12-22T10:22:32.457Z,100067.00
2022-12-22T10:29:00.768Z,100056.78
2022-12-22T10:32:21.355Z,100061.97
2022-12-22T10:35:07.757Z,100060.16
2022-12-22T10:37:53.784Z,100050.50
2022-12-22T10:40:45.956Z,100051.66
2022-12-22T10:43:37.961Z,100046.91
2022-12-22T10:46:51.815Z,100036.38
2022-12-22T10:49:46.101Z,100031.81
2022-12-22T10:52:33.130Z,100027.97
2022-12-22T10:55:29.845Z,100019.03
2022-12-22T10:58:21.308Z,100017.94
2022-12-22T11:01:07.019Z,100008.28
2022-12-22T11:03:52.906Z,100012.53
2022-12-22T11:06:38.405Z,100009.66
2022-12-22T11:09:35.341Z,99997.84
2022-12-22T11:12:21.374Z,99998.03
2022-12-22T11:15:35.143Z,100002.75
2022-12-22T11:18:35.558Z,100000.88
2022-12-22T11:21:36.067Z,99997.44
2022-12-22T11:24:52.084Z,99986.44
2022-12-22T11:28:06.019Z,99984.47
2022-12-22T11:31:12.714Z,99980.00
2022-12-22T11:34:41.141Z,99973.88
2022-12-22T11:37:56.532Z,99961.38
2022-12-22T11:40:46.911Z,99952.19
2022-12-22T11:43:54.003Z,99952.69
2022-12-22T11:46:57.912Z,99946.09
2022-12-22T11:50:59.174Z,99949.13
2022-12-22T11:53:58.433Z,99936.78
2022-12-22T11:57:23.236Z,99932.44
2022-12-22T12:00:18.610Z,99928.59
2022-12-22T12:03:32.051Z,99936.63
2022-12-22T12:06:49.250Z,99930.38
2022-12-22T12:10:23.454Z,99925.38
2022-12-22T12:13:42.697Z,99934.00
2022-12-22T12:17:09.340Z,99933.09
2022-12-22T12:20:34.516Z,99929.25
2022-12-22T12:24:05.917Z,99918.97
2022-12-22T12:27:11.787Z,99918.41
2022-12-22T12:33:33.580Z,99908.06
2022-12-22T12:36:40.542Z,99916.19
2022-12-22T12:40:19.574Z,99903.66
2022-12-22T12:43:07.556Z,99902.38
2022-12-22T12:45:56.611Z,99896.22
2022-12-22T12:48:42.432Z,99892.38
2022-12-22T12:51:50.183Z,99890.91
2022-12-22T12:54:47.495Z,99890.66
2022-12-22T12:57:48.650Z,99883.91
2022-12-22T13:00:34.727Z,99888.50
2022-12-22T13:06:49.982Z,99877.91
2022-12-22T13:09:56.334Z,99869.53
2022-12-22T13:12:55.165Z,99873.38
2022-12-22T13:15:45.198Z,99872.06
2022-12-22T13:18:33.885Z,99864.16
2022-12-22T13:21:53.513Z,99865.00
2022-12-22T13:24:48.835Z,99870.66
2022-12-22T13:27:37.311Z,99868.13
2022-12-22T13:30:23.876Z,99864.88
2022-12-22T13:33:14.060Z,99854.25
2022-12-22T13:36:01.146Z,99853.81
2022-12-22T13:38:47.247Z,99856.09
2022-12-22T13:41:34.428Z,99857.22
2022-12-22T13:44:29.684Z,99856.69
2022-12-22T13:47:15.747Z,99848.31
2022-12-22T13:50:10.064Z,99846.22
2022-12-22T13:52:58.111Z,99844.59
2022-12-22T13:55:47.967Z,99838.63
2022-12-22T13:58:40.682Z,99842.78
2022-12-22T14:01:26.230Z,99834.94
2022-12-22T14:04:13.954Z,99834.53
2022-12-22T14:07:19.086Z,99830.31
2022-12-22T14:10:06.115Z,99829.88
2022-12-22T14:12:51.613Z,99840.63
2022-12-22T14:15:37.807Z,99827.75
2022-12-22T14:18:25.933Z,99823.78
2022-12-22T14:21:12.619Z,99829.28
2022-12-22T14:23:58.143Z,99824.88
2022-12-22T14:26:44.102Z,99826.59
2022-12-22T14:29:31.121Z,99825.91
2022-12-22T14:32:42.598Z,99829.50
2022-12-22T14:35:31.717Z,99819.34
2022-12-22T14:38:26.293Z,99816.09
2022-12-22T14:41:43.215Z,99817.09
2022-12-22T14:44:30.079Z,99803.84
2022-12-22T14:47:21.277Z,99806.53
2022-12-22T14:50:26.427Z,99813.72
2022-12-22T14:53:13.173Z,99808.06
2022-12-22T14:55:58.769Z,99799.22
2022-12-22T14:58:46.734Z,99804.38
2022-12-22T15:01:32.380Z,99799.44
2022-12-22T15:04:20.484Z,99803.53
2022-12-22T15:07:54.412Z,99807.66
2022-12-22T15:10:25.850Z,99807.09
2022-12-22T15:13:21.383Z,99800.59
2022-12-22T15:16:10.048Z,99807.19
2022-12-22T15:18:55.443Z,99801.59
2022-12-22T15:21:41.064Z,99798.13
2022-12-22T15:24:26.575Z,99801.56
2022-12-22T15:27:12.034Z,99804.03
2022-12-22T15:29:57.350Z,99797.59
2022-12-22T15:32:43.926Z,99795.84
2022-12-22T15:35:34.932Z,99796.38
2022-12-22T15:38:23.345Z,99802.00
2022-12-22T15:41:08.840Z,99789.03
2022-12-22T15:43:57.769Z,99787.00
2022-12-22T15:46:51.461Z,99784.09
2022-12-22T15:49:36.967Z,99786.31
2022-12-22T15:52:22.795Z,99786.00
2022-12-22T15:55:14.801Z,99778.31
2022-12-22T15:58:00.549Z,99786.63
2022-12-22T16:00:46.823Z,99777.66
2022-12-22T16:03:33.064Z,99784.34
2022-12-22T16:06:19.745Z,99783.34
2022-12-22T16:09:27.355Z,99775.03
2022-12-22T16:12:17.610Z,99777.97
2022-12-22T16:15:03.758Z,99776.94
2022-12-22T16:17:52.100Z,99775.44
2022-12-22T16:20:42.492Z,99776.28
2022-12-22T16:23:29.390Z,99773.97
2022-12-22T16:26:19.768Z,99762.47
2022-12-22T16:29:05.082Z,99764.19
2022-12-22T16:31:50.555Z,99765.41
2022-12-22T16:34:36.509Z,99770.72
2022-12-22T16:37:22.129Z,99766.94
2022-12-22T16:40:10.066Z,99769.16
2022-12-22T16:46:24.533Z,99764.69
2022-12-22T16:49:13.769Z,99750.31
2022-12-22T16:52:00.132Z,99757.63
2022-12-22T16:54:49.286Z,99756.56
2022-12-22T16:57:38.103Z,99752.16
2022-12-22T17:00:32.199Z,99752.94
2022-12-22T17:03:24.840Z,99745.66
2022-12-22T17:06:11.154Z,99752.91
2022-12-22T17:08:57.067Z,99746.84
2022-12-22T17:11:46.246Z,99757.41
2022-12-22T17:14:39.106Z,99751.31
2022-12-22T17:17:32.057Z,99763.75
2022-12-22T17:20:26.386Z,99759.00
2022-12-22T17:23:31.057Z,99748.84
2022-12-22T17:26:22.583Z,99754.78
2022-12-22T17:29:17.905Z,99755.06
2022-12-22T17:32:03.663Z,99748.72
2022-12-22T17:34:49.741Z,99746.44
2022-12-22T17:37:35.420Z,99742.34
2022-12-22T17:40:28.727Z,99746.22
2022-12-22T17:43:19.912Z,99747.09
2022-12-22T17:46:06.668Z,99748.50
2022-12-22T17:48:52.298Z,99753.38
2022-12-22T17:51:38.296Z,99745.88
2022-12-22T17:54:26.463Z,99748.09
2022-12-22T17:57:29.871Z,99741.59
2022-12-22T18:00:30.163Z,99749.41
2022-12-22T18:03:15.969Z,99745.16
2022-12-22T18:06:01.825Z,99747.50
2022-12-22T18:08:47.744Z,99741.50
2022-12-22T18:11:34.245Z,99750.22
2022-12-22T18:14:22.683Z,99747.91
2022-12-22T18:17:34.908Z,99742.34
2022-12-22T18:20:24.032Z,99736.72
2022-12-22T18:23:27.201Z,99743.88
2022-12-22T18:26:14.440Z,99746.97
2022-12-22T18:29:01.910Z,99747.00
2022-12-22T18:31:47.679Z,99751.03
2022-12-22T18:34:33.629Z,99752.59
2022-12-22T18:37:19.373Z,99742.09
2022-12-22T18:40:06.354Z,99748.19
2022-12-22T18:42:53.290Z,99756.13
2022-12-22T18:45:39.731Z,99755.19
2022-12-22T18:48:25.282Z,99750.63
2022-12-22T18:51:23.488Z,99748.63
2022-12-22T18:54:36.454Z,99746.59
2022-12-22T18:57:22.075Z,99747.78
2022-12-22T19:00:14.091Z,99744.44
2022-12-22T19:03:02.411Z,99744.16
2022-12-22T19:05:49.123Z,99746.81
2022-12-22T19:08:37.845Z,99753.31
2022-12-22T19:11:33.620Z,99751.38
2022-12-22T19:14:21.609Z,99751.09
2022-12-22T19:17:27.290Z,99753.72
2022-12-22T19:20:21.217Z,99761.66
2022-12-22T19:23:07.076Z,99759.94
2022-12-22T19:26:08.360Z,99767.09
2022-12-22T19:29:03.164Z,99772.78
2022-12-22T19:31:48.932Z,99768.56
2022-12-22T19:34:34.872Z,99769.19
2022-12-22T19:37:20.715Z,99766.28
2022-12-22T19:40:06.982Z,99773.16
2022-12-22T19:42:56.117Z,99774.81
2022-12-22T19:45:41.814Z,99773.41
2022-12-22T19:48:27.892Z,99773.41
2022-12-22T19:51:17.576Z,99775.34
2022-12-22T19:54:04.036Z,99781.69
2022-12-22T19:56:54.431Z,99774.28
2022-12-22T19:59:43.998Z,99778.06
2022-12-22T20:02:33.459Z,99776.84
2022-12-22T20:05:30.325Z,99777.06
2022-12-22T20:08:16.562Z,99785.19
2022-12-22T20:11:02.325Z,99778.28
2022-12-22T20:13:48.541Z,99784.97
2022-12-22T20:16:34.181Z,99788.00
2022-12-22T20:19:20.091Z,99795.63
2022-12-22T20:22:06.165Z,99797.00
2022-12-22T20:24:54.544Z,99796.81
2022-12-22T20:27:40.261Z,99793.06
2022-12-22T20:30:30.071Z,99796.81
2022-12-22T20:33:17.969Z,99802.56
2022-12-22T20:36:15.547Z,99786.75
2022-12-22T20:39:02.139Z,99791.63
2022-12-22T20:41:53.014Z,99790.84
2022-12-22T20:44:39.409Z,99792.44
2022-12-22T20:47:45.853Z,99793.56
2022-12-22T20:50:34.554Z,99804.91
2022-12-22T20:53:21.064Z,99805.72
2022-12-22T20:56:38.397Z,99801.50
2022-12-22T20:59:24.805Z,99801.06
2022-12-22T21:02:24.520Z,99792.44
2022-12-22T21:05:10.629Z,99787.91
2022-12-22T21:07:57.456Z,99782.09
2022-12-22T21:10:44.937Z,99786.00
2022-12-22T21:13:30.672Z,99806.25
2022-12-22T21:16:23.888Z,99820.31
2022-12-22T21:19:18.011Z,99821.47
2022-12-22T21:22:04.044Z,99827.63
2022-12-22T21:24:49.493Z,99829.59
2022-12-22T21:27:37.206Z,99828.63
2022-12-22T21:30:28.474Z,99830.00
2022-12-22T21:33:14.402Z,99837.91
2022-12-22T21:36:03.044Z,99833.56
2022-12-22T21:38:51.929Z,99833.22
2022-12-22T21:41:55.903Z,99839.28
2022-12-22T21:44:41.472Z,99838.91
2022-12-22T21:47:26.821Z,99844.97
2022-12-22T21:50:28.747Z,99847.44
2022-12-22T21:53:19.842Z,99856.59
2022-12-22T21:56:18.264Z,99856.78
2022-12-22T21:59:04.319Z,99858.63
2022-12-22T22:01:53.047Z,99854.41
2022-12-22T22:04:39.114Z,99852.81
2022-12-22T22:07:25.084Z,99866.94
2022-12-22T22:10:11.255Z,99856.94
2022-12-22T22:12:57.514Z,99858.00
2022-12-22T22:15:43.515Z,99862.75
2022-12-22T22:18:29.304Z,99862.59
2022-12-22T22:21:16.803Z,99864.44
2022-12-22T22:24:02.436Z,99868.69
2022-12-22T22:26:49.277Z,99869.31
2022-12-22T22:29:36.143Z,99868.56
2022-12-22T22:32:21.591Z,99865.59
2022-12-22T22:35:07.384Z,99871.97
2022-12-22T22:37:53.176Z,99870.53
2022-12-22T22:40:42.097Z,99874.00
2022-12-22T22:43:29.416Z,99874.91
2022-12-22T22:46:15.017Z,99879.03
2022-12-22T22:49:01.450Z,99888.19
2022-12-22T22:51:48.748Z,99884.28
2022-12-22T22:54:34.669Z,99893.22
2022-12-22T22:57:19.954Z,99883.34
2022-12-22T23:00:07.857Z,99885.22
2022-12-22T23:02:53.495Z,99899.72
2022-12-22T23:05:39.148Z,99901.88
2022-12-22T23:08:24.592Z,99907.22
2022-12-22T23:11:15.303Z,99905.59
2022-12-22T23:14:01.396Z,99910.13
2022-12-22T23:16:48.727Z,99919.88
2022-12-22T23:19:34.471Z,99912.34
2022-12-22T23:22:20.093Z,99911.91
2022-12-22T23:25:05.939Z,99909.78
2022-12-22T23:27:51.540Z,99905.50
2022-12-22T23:30:42.756Z,99911.28
2022-12-22T23:33:30.329Z,99909.63
2022-12-22T23:36:16.016Z,99908.22
2022-12-22T23:39:01.515Z,99906.66
2022-12-22T23:41:46.928Z,99907.69
2022-12-22T23:44:32.497Z,99905.19
2022-12-22T23:47:17.879Z,99907.59
2022-12-22T23:50:03.612Z,99912.59
2022-12-22T23:52:50.619Z,99912.31
2022-12-22T23:55:36.300Z,99911.72
2022-12-22T23:58:22.700Z,99921.13
